sensor_id;sensor_type;location;lat;lon;timestamp;P1;durP1;ratioP1;P2;durP2;ratioP2
7527;SDS011;3805;49.006;8.514;2023-04-06T00:00:01;12.97;;;11.67;;
7527;SDS011;3805;49.006;8.514;2023-04-06T00:02:50;13.13;;;11.10;;
7527;SDS011;3805;49.006;8.514;2023-04-06T00:05:39;13.10;;;10.97;;
7527;SDS011;3805;49.006;8.514;2023-04-06T00:08:29;13.10;;;11.83;;
7527;SDS011;3805;49.006;8.514;2023-04-06T00:11:18;14.13;;;12.43;;
7527;SDS011;3805;49.006;8.514;2023-04-06T00:14:07;12.90;;;11.57;;
7527;SDS011;3805;49.006;8.514;2023-04-06T00:16:55;14.60;;;11.00;;
7527;SDS011;3805;49.006;8.514;2023-04-06T00:19:44;12.93;;;11.80;;
7527;SDS011;3805;49.006;8.514;2023-04-06T00:22:33;12.03;;;10.93;;
7527;SDS011;3805;49.006;8.514;2023-04-06T00:25:23;14.47;;;12.40;;
7527;SDS011;3805;49.006;8.514;2023-04-06T00:28:12;12.77;;;11.50;;
7527;SDS011;3805;49.006;8.514;2023-04-06T00:31:01;11.33;;;10.23;;
7527;SDS011;3805;49.006;8.514;2023-04-06T00:33:50;12.67;;;11.00;;
7527;SDS011;3805;49.006;8.514;2023-04-06T00:36:39;12.80;;;11.07;;
7527;SDS011;3805;49.006;8.514;2023-04-06T00:39:27;12.40;;;11.30;;
7527;SDS011;3805;49.006;8.514;2023-04-06T00:42:18;12.37;;;11.00;;
7527;SDS011;3805;49.006;8.514;2023-04-06T00:45:12;13.17;;;11.87;;
7527;SDS011;3805;49.006;8.514;2023-04-06T00:48:00;13.73;;;11.93;;
7527;SDS011;3805;49.006;8.514;2023-04-06T00:50:50;12.43;;;10.83;;
7527;SDS011;3805;49.006;8.514;2023-04-06T00:53:39;13.27;;;11.87;;
7527;SDS011;3805;49.006;8.514;2023-04-06T00:56:27;17.20;;;14.20;;
7527;SDS011;3805;49.006;8.514;2023-04-06T00:59:17;12.13;;;10.93;;
7527;SDS011;3805;49.006;8.514;2023-04-06T01:02:06;13.83;;;12.53;;
7527;SDS011;3805;49.006;8.514;2023-04-06T01:04:56;13.00;;;11.70;;
7527;SDS011;3805;49.006;8.514;2023-04-06T01:07:45;12.60;;;11.30;;
7527;SDS011;3805;49.006;8.514;2023-04-06T01:10:33;12.97;;;11.63;;
7527;SDS011;3805;49.006;8.514;2023-04-06T01:13:22;20.97;;;12.53;;
7527;SDS011;3805;49.006;8.514;2023-04-06T01:16:12;14.27;;;12.37;;
7527;SDS011;3805;49.006;8.514;2023-04-06T01:19:01;12.67;;;11.50;;
7527;SDS011;3805;49.006;8.514;2023-04-06T01:21:53;14.80;;;13.20;;
7527;SDS011;3805;49.006;8.514;2023-04-06T01:24:43;13.07;;;11.07;;
7527;SDS011;3805;49.006;8.514;2023-04-06T01:27:31;16.83;;;13.13;;
7527;SDS011;3805;49.006;8.514;2023-04-06T01:30:20;13.47;;;11.90;;
7527;SDS011;3805;49.006;8.514;2023-04-06T01:33:09;15.60;;;12.40;;
7527;SDS011;3805;49.006;8.514;2023-04-06T01:35:58;15.67;;;14.17;;
7527;SDS011;3805;49.006;8.514;2023-04-06T01:38:46;15.97;;;12.93;;
7527;SDS011;3805;49.006;8.514;2023-04-06T01:41:36;14.80;;;12.17;;
7527;SDS011;3805;49.006;8.514;2023-04-06T01:44:25;14.33;;;12.40;;
7527;SDS011;3805;49.006;8.514;2023-04-06T01:47:14;13.57;;;12.17;;
7527;SDS011;3805;49.006;8.514;2023-04-06T01:50:02;15.00;;;13.53;;
7527;SDS011;3805;49.006;8.514;2023-04-06T01:52:53;15.70;;;13.00;;
7527;SDS011;3805;49.006;8.514;2023-04-06T01:55:42;14.37;;;11.83;;
7527;SDS011;3805;49.006;8.514;2023-04-06T01:58:32;14.93;;;13.43;;
7527;SDS011;3805;49.006;8.514;2023-04-06T02:01:21;13.43;;;12.20;;
7527;SDS011;3805;49.006;8.514;2023-04-06T02:04:10;13.50;;;11.27;;
7527;SDS011;3805;49.006;8.514;2023-04-06T02:07:00;13.50;;;12.17;;
7527;SDS011;3805;49.006;8.514;2023-04-06T02:09:50;11.30;;;10.30;;
7527;SDS011;3805;49.006;8.514;2023-04-06T02:12:41;14.07;;;9.70;;
7527;SDS011;3805;49.006;8.514;2023-04-06T02:15:31;13.87;;;11.90;;
7527;SDS011;3805;49.006;8.514;2023-04-06T02:18:20;12.70;;;11.50;;
7527;SDS011;3805;49.006;8.514;2023-04-06T02:21:09;15.73;;;11.03;;
7527;SDS011;3805;49.006;8.514;2023-04-06T02:23:58;14.10;;;11.43;;
7527;SDS011;3805;49.006;8.514;2023-04-06T02:26:47;11.40;;;10.03;;
7527;SDS011;3805;49.006;8.514;2023-04-06T02:29:35;11.63;;;10.43;;
7527;SDS011;3805;49.006;8.514;2023-04-06T02:32:25;12.67;;;10.83;;
7527;SDS011;3805;49.006;8.514;2023-04-06T02:35:14;12.23;;;10.93;;
7527;SDS011;3805;49.006;8.514;2023-04-06T02:38:03;12.60;;;10.23;;
7527;SDS011;3805;49.006;8.514;2023-04-06T02:40:52;10.93;;;9.87;;
7527;SDS011;3805;49.006;8.514;2023-04-06T02:43:40;10.73;;;9.80;;
7527;SDS011;3805;49.006;8.514;2023-04-06T02:46:29;10.10;;;9.10;;
7527;SDS011;3805;49.006;8.514;2023-04-06T02:49:19;13.40;;;9.97;;
7527;SDS011;3805;49.006;8.514;2023-04-06T02:52:08;10.43;;;9.43;;
7527;SDS011;3805;49.006;8.514;2023-04-06T02:54:56;10.83;;;9.80;;
7527;SDS011;3805;49.006;8.514;2023-04-06T02:57:45;11.73;;;9.70;;
7527;SDS011;3805;49.006;8.514;2023-04-06T03:00:33;12.17;;;9.57;;
7527;SDS011;3805;49.006;8.514;2023-04-06T03:03:23;10.57;;;9.57;;
7527;SDS011;3805;49.006;8.514;2023-04-06T03:06:13;11.73;;;8.97;;
7527;SDS011;3805;49.006;8.514;2023-04-06T03:09:02;10.00;;;9.03;;
7527;SDS011;3805;49.006;8.514;2023-04-06T03:11:50;11.00;;;10.03;;
7527;SDS011;3805;49.006;8.514;2023-04-06T03:14:39;10.73;;;9.70;;
7527;SDS011;3805;49.006;8.514;2023-04-06T03:17:28;9.37;;;8.67;;
7527;SDS011;3805;49.006;8.514;2023-04-06T03:20:16;10.77;;;9.77;;
7527;SDS011;3805;49.006;8.514;2023-04-06T03:23:07;10.67;;;9.60;;
7527;SDS011;3805;49.006;8.514;2023-04-06T03:25:55;12.53;;;11.47;;
7527;SDS011;3805;49.006;8.514;2023-04-06T03:28:44;12.53;;;9.13;;
7527;SDS011;3805;49.006;8.514;2023-04-06T03:31:32;10.30;;;9.40;;
7527;SDS011;3805;49.006;8.514;2023-04-06T03:34:21;11.80;;;10.70;;
7527;SDS011;3805;49.006;8.514;2023-04-06T03:37:10;9.47;;;8.60;;
7527;SDS011;3805;49.006;8.514;2023-04-06T03:40:00;10.10;;;9.10;;
7527;SDS011;3805;49.006;8.514;2023-04-06T03:42:49;11.73;;;10.67;;
7527;SDS011;3805;49.006;8.514;2023-04-06T03:45:38;10.50;;;8.80;;
7527;SDS011;3805;49.006;8.514;2023-04-06T03:48:27;10.00;;;8.87;;
7527;SDS011;3805;49.006;8.514;2023-04-06T03:51:15;10.67;;;9.30;;
7527;SDS011;3805;49.006;8.514;2023-04-06T03:54:04;11.57;;;10.37;;
7527;SDS011;3805;49.006;8.514;2023-04-06T03:56:54;10.03;;;9.17;;
7527;SDS011;3805;49.006;8.514;2023-04-06T03:59:43;10.97;;;9.83;;
7527;SDS011;3805;49.006;8.514;2023-04-06T04:02:32;11.33;;;10.23;;
7527;SDS011;3805;49.006;8.514;2023-04-06T04:05:20;14.23;;;11.03;;
7527;SDS011;3805;49.006;8.514;2023-04-06T04:08:12;8.90;;;8.10;;
7527;SDS011;3805;49.006;8.514;2023-04-06T04:11:00;10.90;;;9.40;;
7527;SDS011;3805;49.006;8.514;2023-04-06T04:13:50;12.97;;;10.93;;
7527;SDS011;3805;49.006;8.514;2023-04-06T04:16:39;11.20;;;10.13;;
7527;SDS011;3805;49.006;8.514;2023-04-06T04:19:29;11.73;;;10.73;;
7527;SDS011;3805;49.006;8.514;2023-04-06T04:22:17;11.40;;;10.10;;
7527;SDS011;3805;49.006;8.514;2023-04-06T04:25:06;10.53;;;9.50;;
7527;SDS011;3805;49.006;8.514;2023-04-06T04:27:55;11.13;;;9.30;;
7527;SDS011;3805;49.006;8.514;2023-04-06T04:30:46;10.40;;;9.30;;
7527;SDS011;3805;49.006;8.514;2023-04-06T04:33:34;14.23;;;8.87;;
7527;SDS011;3805;49.006;8.514;2023-04-06T04:36:23;10.47;;;9.30;;
7527;SDS011;3805;49.006;8.514;2023-04-06T04:39:12;13.23;;;10.03;;
7527;SDS011;3805;49.006;8.514;2023-04-06T04:42:01;10.70;;;9.70;;
7527;SDS011;3805;49.006;8.514;2023-04-06T04:44:50;10.30;;;9.30;;
7527;SDS011;3805;49.006;8.514;2023-04-06T04:47:40;10.70;;;9.60;;
7527;SDS011;3805;49.006;8.514;2023-04-06T04:50:28;12.30;;;10.20;;
7527;SDS011;3805;49.006;8.514;2023-04-06T04:53:17;12.67;;;10.83;;
7527;SDS011;3805;49.006;8.514;2023-04-06T04:56:06;12.00;;;10.73;;
7527;SDS011;3805;49.006;8.514;2023-04-06T04:58:54;11.80;;;10.70;;
7527;SDS011;3805;49.006;8.514;2023-04-06T05:01:43;12.67;;;11.30;;
7527;SDS011;3805;49.006;8.514;2023-04-06T05:04:43;14.47;;;11.90;;
7527;SDS011;3805;49.006;8.514;2023-04-06T05:07:31;11.57;;;10.37;;
7527;SDS011;3805;49.006;8.514;2023-04-06T05:10:20;12.10;;;10.87;;
7527;SDS011;3805;49.006;8.514;2023-04-06T05:13:09;10.70;;;9.60;;
7527;SDS011;3805;49.006;8.514;2023-04-06T05:15:58;10.87;;;9.80;;
7527;SDS011;3805;49.006;8.514;2023-04-06T05:18:47;11.30;;;10.13;;
7527;SDS011;3805;49.006;8.514;2023-04-06T05:21:37;12.90;;;9.73;;
7527;SDS011;3805;49.006;8.514;2023-04-06T05:24:25;11.87;;;10.57;;
7527;SDS011;3805;49.006;8.514;2023-04-06T05:27:14;13.07;;;10.30;;
7527;SDS011;3805;49.006;8.514;2023-04-06T05:30:03;10.90;;;9.93;;
7527;SDS011;3805;49.006;8.514;2023-04-06T05:32:52;10.83;;;9.83;;
7527;SDS011;3805;49.006;8.514;2023-04-06T05:35:41;11.57;;;10.47;;
7527;SDS011;3805;49.006;8.514;2023-04-06T05:38:31;12.93;;;10.50;;
7527;SDS011;3805;49.006;8.514;2023-04-06T05:41:20;10.37;;;9.40;;
7527;SDS011;3805;49.006;8.514;2023-04-06T05:44:09;12.20;;;10.17;;
7527;SDS011;3805;49.006;8.514;2023-04-06T05:46:58;11.13;;;10.00;;
7527;SDS011;3805;49.006;8.514;2023-04-06T05:49:46;11.93;;;10.70;;
7527;SDS011;3805;49.006;8.514;2023-04-06T05:52:35;13.03;;;11.67;;
7527;SDS011;3805;49.006;8.514;2023-04-06T05:55:25;12.03;;;10.87;;
7527;SDS011;3805;49.006;8.514;2023-04-06T05:58:14;11.47;;;10.20;;
7527;SDS011;3805;49.006;8.514;2023-04-06T06:01:04;11.73;;;10.43;;
7527;SDS011;3805;49.006;8.514;2023-04-06T06:03:53;14.00;;;10.77;;
7527;SDS011;3805;49.006;8.514;2023-04-06T06:06:41;11.63;;;10.43;;
7527;SDS011;3805;49.006;8.514;2023-04-06T06:09:30;11.47;;;10.37;;
7527;SDS011;3805;49.006;8.514;2023-04-06T06:12:20;11.93;;;10.80;;
7527;SDS011;3805;49.006;8.514;2023-04-06T06:15:09;12.10;;;10.90;;
7527;SDS011;3805;49.006;8.514;2023-04-06T06:17:58;10.37;;;9.37;;
7527;SDS011;3805;49.006;8.514;2023-04-06T06:20:47;13.23;;;12.07;;
7527;SDS011;3805;49.006;8.514;2023-04-06T06:23:36;12.17;;;10.47;;
7527;SDS011;3805;49.006;8.514;2023-04-06T06:26:24;16.93;;;12.47;;
7527;SDS011;3805;49.006;8.514;2023-04-06T06:29:14;13.20;;;11.60;;
7527;SDS011;3805;49.006;8.514;2023-04-06T06:32:03;14.17;;;11.17;;
7527;SDS011;3805;49.006;8.514;2023-04-06T06:34:52;12.37;;;11.10;;
7527;SDS011;3805;49.006;8.514;2023-04-06T06:37:41;11.67;;;9.97;;
7527;SDS011;3805;49.006;8.514;2023-04-06T06:40:30;13.50;;;12.20;;
7527;SDS011;3805;49.006;8.514;2023-04-06T06:43:18;12.37;;;11.10;;
7527;SDS011;3805;49.006;8.514;2023-04-06T06:46:09;12.37;;;11.03;;
7527;SDS011;3805;49.006;8.514;2023-04-06T06:48:58;13.40;;;10.60;;
7527;SDS011;3805;49.006;8.514;2023-04-06T06:51:46;10.60;;;9.70;;
7527;SDS011;3805;49.006;8.514;2023-04-06T06:54:35;13.17;;;11.97;;
7527;SDS011;3805;49.006;8.514;2023-04-06T06:57:25;12.20;;;10.20;;
7527;SDS011;3805;49.006;8.514;2023-04-06T07:00:14;15.53;;;10.40;;
7527;SDS011;3805;49.006;8.514;2023-04-06T07:03:04;14.63;;;10.53;;
7527;SDS011;3805;49.006;8.514;2023-04-06T07:05:53;11.43;;;10.10;;
7527;SDS011;3805;49.006;8.514;2023-04-06T07:08:42;12.00;;;10.90;;
7527;SDS011;3805;49.006;8.514;2023-04-06T07:11:30;10.50;;;9.57;;
7527;SDS011;3805;49.006;8.514;2023-04-06T07:14:19;11.17;;;10.17;;
7527;SDS011;3805;49.006;8.514;2023-04-06T07:17:08;13.30;;;10.40;;
7527;SDS011;3805;49.006;8.514;2023-04-06T07:19:59;11.07;;;9.37;;
7527;SDS011;3805;49.006;8.514;2023-04-06T07:22:48;10.57;;;9.60;;
7527;SDS011;3805;49.006;8.514;2023-04-06T07:25:37;11.63;;;10.43;;
7527;SDS011;3805;49.006;8.514;2023-04-06T07:28:25;12.10;;;10.47;;
7527;SDS011;3805;49.006;8.514;2023-04-06T07:31:14;11.80;;;10.50;;
7527;SDS011;3805;49.006;8.514;2023-04-06T07:34:03;13.63;;;10.50;;
7527;SDS011;3805;49.006;8.514;2023-04-06T07:36:53;10.87;;;9.87;;
7527;SDS011;3805;49.006;8.514;2023-04-06T07:39:43;11.47;;;9.43;;
7527;SDS011;3805;49.006;8.514;2023-04-06T07:42:32;10.00;;;8.83;;
7527;SDS011;3805;49.006;8.514;2023-04-06T07:45:21;9.30;;;8.37;;
7527;SDS011;3805;49.006;8.514;2023-04-06T07:48:09;9.43;;;8.43;;
7527;SDS011;3805;49.006;8.514;2023-04-06T07:51:01;10.33;;;9.33;;
7527;SDS011;3805;49.006;8.514;2023-04-06T07:53:52;9.87;;;8.97;;
7527;SDS011;3805;49.006;8.514;2023-04-06T07:56:40;11.20;;;8.73;;
7527;SDS011;3805;49.006;8.514;2023-04-06T07:59:29;10.40;;;8.40;;
7527;SDS011;3805;49.006;8.514;2023-04-06T08:02:18;9.73;;;8.83;;
7527;SDS011;3805;49.006;8.514;2023-04-06T08:05:07;9.77;;;8.77;;
7527;SDS011;3805;49.006;8.514;2023-04-06T08:07:56;9.40;;;8.60;;
7527;SDS011;3805;49.006;8.514;2023-04-06T08:10:46;8.73;;;8.03;;
7527;SDS011;3805;49.006;8.514;2023-04-06T08:13:35;9.60;;;8.80;;
7527;SDS011;3805;49.006;8.514;2023-04-06T08:16:23;9.10;;;8.20;;
7527;SDS011;3805;49.006;8.514;2023-04-06T08:19:12;10.53;;;9.53;;
7527;SDS011;3805;49.006;8.514;2023-04-06T08:22:04;9.40;;;8.50;;
7527;SDS011;3805;49.006;8.514;2023-04-06T08:24:52;8.77;;;7.97;;
7527;SDS011;3805;49.006;8.514;2023-04-06T08:27:43;10.63;;;8.47;;
7527;SDS011;3805;49.006;8.514;2023-04-06T08:30:31;8.97;;;8.17;;
7527;SDS011;3805;49.006;8.514;2023-04-06T08:33:20;8.40;;;7.70;;
7527;SDS011;3805;49.006;8.514;2023-04-06T08:36:09;7.97;;;7.27;;
7527;SDS011;3805;49.006;8.514;2023-04-06T08:38:59;9.03;;;8.20;;
7527;SDS011;3805;49.006;8.514;2023-04-06T08:41:48;8.47;;;7.60;;
7527;SDS011;3805;49.006;8.514;2023-04-06T08:44:40;8.40;;;7.70;;
7527;SDS011;3805;49.006;8.514;2023-04-06T08:47:29;7.43;;;6.80;;
7527;SDS011;3805;49.006;8.514;2023-04-06T08:50:18;9.57;;;8.60;;
7527;SDS011;3805;49.006;8.514;2023-04-06T08:53:06;8.57;;;7.87;;
7527;SDS011;3805;49.006;8.514;2023-04-06T08:55:56;9.43;;;8.50;;
7527;SDS011;3805;49.006;8.514;2023-04-06T08:58:46;8.13;;;7.30;;
7527;SDS011;3805;49.006;8.514;2023-04-06T09:01:39;9.30;;;8.30;;
7527;SDS011;3805;49.006;8.514;2023-04-06T09:04:29;8.73;;;7.93;;
7527;SDS011;3805;49.006;8.514;2023-04-06T09:07:18;8.40;;;7.60;;
7527;SDS011;3805;49.006;8.514;2023-04-06T09:10:07;8.90;;;8.00;;
7527;SDS011;3805;49.006;8.514;2023-04-06T09:13:02;9.37;;;8.57;;
7527;SDS011;3805;49.006;8.514;2023-04-06T09:15:58;8.83;;;8.10;;
7527;SDS011;3805;49.006;8.514;2023-04-06T09:18:49;8.43;;;7.73;;
7527;SDS011;3805;49.006;8.514;2023-04-06T09:21:38;10.37;;;9.50;;
7527;SDS011;3805;49.006;8.514;2023-04-06T09:24:27;9.90;;;8.93;;
7527;SDS011;3805;49.006;8.514;2023-04-06T09:27:16;9.27;;;8.40;;
7527;SDS011;3805;49.006;8.514;2023-04-06T09:30:06;9.37;;;8.40;;
7527;SDS011;3805;49.006;8.514;2023-04-06T09:32:57;9.90;;;8.70;;
7527;SDS011;3805;49.006;8.514;2023-04-06T09:35:50;9.27;;;8.20;;
7527;SDS011;3805;49.006;8.514;2023-04-06T09:38:39;10.40;;;9.17;;
7527;SDS011;3805;49.006;8.514;2023-04-06T09:41:40;8.80;;;8.07;;
7527;SDS011;3805;49.006;8.514;2023-04-06T09:44:29;9.23;;;8.43;;
7527;SDS011;3805;49.006;8.514;2023-04-06T09:47:18;9.53;;;8.73;;
7527;SDS011;3805;49.006;8.514;2023-04-06T09:50:12;12.33;;;9.87;;
7527;SDS011;3805;49.006;8.514;2023-04-06T09:53:04;9.70;;;8.90;;
7527;SDS011;3805;49.006;8.514;2023-04-06T09:55:53;9.80;;;8.83;;
7527;SDS011;3805;49.006;8.514;2023-04-06T09:58:46;10.37;;;9.47;;
7527;SDS011;3805;49.006;8.514;2023-04-06T10:01:37;11.80;;;10.60;;
7527;SDS011;3805;49.006;8.514;2023-04-06T10:04:29;10.23;;;9.43;;
7527;SDS011;3805;49.006;8.514;2023-04-06T10:07:22;10.67;;;9.57;;
7527;SDS011;3805;49.006;8.514;2023-04-06T10:10:12;13.40;;;9.60;;
7527;SDS011;3805;49.006;8.514;2023-04-06T10:13:02;11.37;;;10.17;;
7527;SDS011;3805;49.006;8.514;2023-04-06T10:15:52;10.13;;;9.13;;
7527;SDS011;3805;49.006;8.514;2023-04-06T10:18:41;10.87;;;9.77;;
7527;SDS011;3805;49.006;8.514;2023-04-06T10:21:32;9.30;;;8.50;;
7527;SDS011;3805;49.006;8.514;2023-04-06T10:24:21;10.30;;;9.30;;
7527;SDS011;3805;49.006;8.514;2023-04-06T10:27:11;8.63;;;7.73;;
7527;SDS011;3805;49.006;8.514;2023-04-06T10:30:01;9.80;;;8.80;;
7527;SDS011;3805;49.006;8.514;2023-04-06T10:32:51;10.27;;;8.17;;
7527;SDS011;3805;49.006;8.514;2023-04-06T10:35:39;9.97;;;8.97;;
7527;SDS011;3805;49.006;8.514;2023-04-06T10:38:34;9.37;;;8.57;;
7527;SDS011;3805;49.006;8.514;2023-04-06T10:41:33;9.90;;;9.07;;
7527;SDS011;3805;49.006;8.514;2023-04-06T10:44:24;13.10;;;9.17;;
7527;SDS011;3805;49.006;8.514;2023-04-06T10:47:16;9.10;;;8.20;;
7527;SDS011;3805;49.006;8.514;2023-04-06T10:50:06;9.97;;;8.60;;
7527;SDS011;3805;49.006;8.514;2023-04-06T10:52:58;9.33;;;8.63;;
7527;SDS011;3805;49.006;8.514;2023-04-06T10:55:47;10.50;;;9.43;;
7527;SDS011;3805;49.006;8.514;2023-04-06T10:58:38;10.63;;;9.63;;
7527;SDS011;3805;49.006;8.514;2023-04-06T11:01:28;11.70;;;10.20;;
7527;SDS011;3805;49.006;8.514;2023-04-06T11:04:17;10.73;;;9.73;;
7527;SDS011;3805;49.006;8.514;2023-04-06T11:07:07;11.93;;;10.73;;
7527;SDS011;3805;49.006;8.514;2023-04-06T11:09:56;10.27;;;9.27;;
7527;SDS011;3805;49.006;8.514;2023-04-06T11:13:01;10.40;;;9.40;;
7527;SDS011;3805;49.006;8.514;2023-04-06T11:15:50;9.97;;;9.00;;
7527;SDS011;3805;49.006;8.514;2023-04-06T11:18:47;10.50;;;9.60;;
7527;SDS011;3805;49.006;8.514;2023-04-06T11:21:37;10.47;;;9.57;;
7527;SDS011;3805;49.006;8.514;2023-04-06T11:24:27;10.60;;;9.50;;
7527;SDS011;3805;49.006;8.514;2023-04-06T11:27:16;9.77;;;8.80;;
7527;SDS011;3805;49.006;8.514;2023-04-06T11:30:06;10.23;;;9.20;;
7527;SDS011;3805;49.006;8.514;2023-04-06T11:33:00;10.83;;;9.73;;
7527;SDS011;3805;49.006;8.514;2023-04-06T11:35:51;12.03;;;9.50;;
7527;SDS011;3805;49.006;8.514;2023-04-06T11:38:39;9.97;;;9.03;;
7527;SDS011;3805;49.006;8.514;2023-04-06T11:41:28;10.40;;;8.73;;
7527;SDS011;3805;49.006;8.514;2023-04-06T11:44:28;9.43;;;8.60;;
7527;SDS011;3805;49.006;8.514;2023-04-06T11:47:17;10.07;;;9.10;;
7527;SDS011;3805;49.006;8.514;2023-04-06T11:50:07;9.20;;;8.30;;
7527;SDS011;3805;49.006;8.514;2023-04-06T11:53:00;9.37;;;8.47;;
7527;SDS011;3805;49.006;8.514;2023-04-06T11:55:50;11.10;;;9.20;;
7527;SDS011;3805;49.006;8.514;2023-04-06T11:58:39;9.60;;;8.70;;
7527;SDS011;3805;49.006;8.514;2023-04-06T12:01:28;8.60;;;7.70;;
7527;SDS011;3805;49.006;8.514;2023-04-06T12:04:23;12.10;;;9.17;;
7527;SDS011;3805;49.006;8.514;2023-04-06T12:07:12;8.90;;;8.00;;
7527;SDS011;3805;49.006;8.514;2023-04-06T12:10:02;9.40;;;8.37;;
7527;SDS011;3805;49.006;8.514;2023-04-06T12:12:52;8.83;;;8.03;;
7527;SDS011;3805;49.006;8.514;2023-04-06T12:15:40;10.03;;;8.50;;
7527;SDS011;3805;49.006;8.514;2023-04-06T12:18:29;9.43;;;8.53;;
7527;SDS011;3805;49.006;8.514;2023-04-06T12:21:18;8.80;;;8.00;;
7527;SDS011;3805;49.006;8.514;2023-04-06T12:24:07;9.80;;;8.80;;
7527;SDS011;3805;49.006;8.514;2023-04-06T12:26:57;9.37;;;8.30;;
7527;SDS011;3805;49.006;8.514;2023-04-06T12:29:56;10.03;;;8.70;;
7527;SDS011;3805;49.006;8.514;2023-04-06T12:32:45;10.03;;;9.00;;
7527;SDS011;3805;49.006;8.514;2023-04-06T12:35:37;9.53;;;8.63;;
7527;SDS011;3805;49.006;8.514;2023-04-06T12:38:26;9.53;;;8.53;;
7527;SDS011;3805;49.006;8.514;2023-04-06T12:41:14;9.90;;;9.10;;
7527;SDS011;3805;49.006;8.514;2023-04-06T12:44:04;9.20;;;8.30;;
7527;SDS011;3805;49.006;8.514;2023-04-06T12:46:53;9.20;;;8.33;;
7527;SDS011;3805;49.006;8.514;2023-04-06T12:49:42;9.90;;;8.90;;
7527;SDS011;3805;49.006;8.514;2023-04-06T12:52:31;10.63;;;9.53;;
7527;SDS011;3805;49.006;8.514;2023-04-06T12:55:22;9.63;;;8.60;;
7527;SDS011;3805;49.006;8.514;2023-04-06T12:58:10;9.43;;;8.53;;
7527;SDS011;3805;49.006;8.514;2023-04-06T13:01:05;9.40;;;8.57;;
7527;SDS011;3805;49.006;8.514;2023-04-06T13:03:55;9.07;;;8.17;;
7527;SDS011;3805;49.006;8.514;2023-04-06T13:06:44;8.93;;;8.03;;
7527;SDS011;3805;49.006;8.514;2023-04-06T13:09:32;9.93;;;8.50;;
7527;SDS011;3805;49.006;8.514;2023-04-06T13:12:21;11.10;;;8.50;;
7527;SDS011;3805;49.006;8.514;2023-04-06T13:15:10;9.30;;;8.27;;
7527;SDS011;3805;49.006;8.514;2023-04-06T13:18:00;8.63;;;7.73;;
7527;SDS011;3805;49.006;8.514;2023-04-06T13:20:49;10.70;;;9.70;;
7527;SDS011;3805;49.006;8.514;2023-04-06T13:23:38;9.00;;;8.20;;
7527;SDS011;3805;49.006;8.514;2023-04-06T13:26:28;9.87;;;8.77;;
7527;SDS011;3805;49.006;8.514;2023-04-06T13:29:16;9.43;;;8.50;;
7527;SDS011;3805;49.006;8.514;2023-04-06T13:32:05;9.40;;;8.20;;
7527;SDS011;3805;49.006;8.514;2023-04-06T13:34:56;8.73;;;7.83;;
7527;SDS011;3805;49.006;8.514;2023-04-06T13:37:45;10.27;;;8.37;;
7527;SDS011;3805;49.006;8.514;2023-04-06T13:40:35;12.80;;;9.87;;
7527;SDS011;3805;49.006;8.514;2023-04-06T13:43:26;7.93;;;7.33;;
7527;SDS011;3805;49.006;8.514;2023-04-06T13:46:15;8.20;;;7.40;;
7527;SDS011;3805;49.006;8.514;2023-04-06T13:49:04;8.57;;;7.77;;
7527;SDS011;3805;49.006;8.514;2023-04-06T13:51:54;10.67;;;6.17;;
7527;SDS011;3805;49.006;8.514;2023-04-06T13:54:43;9.70;;;7.63;;
7527;SDS011;3805;49.006;8.514;2023-04-06T13:57:32;9.43;;;8.50;;
7527;SDS011;3805;49.006;8.514;2023-04-06T14:00:20;7.33;;;6.73;;
7527;SDS011;3805;49.006;8.514;2023-04-06T14:03:09;7.13;;;6.33;;
7527;SDS011;3805;49.006;8.514;2023-04-06T14:05:58;8.03;;;7.07;;
7527;SDS011;3805;49.006;8.514;2023-04-06T14:09:03;7.70;;;7.00;;
7527;SDS011;3805;49.006;8.514;2023-04-06T14:11:51;7.43;;;6.67;;
7527;SDS011;3805;49.006;8.514;2023-04-06T14:14:40;7.10;;;6.50;;
7527;SDS011;3805;49.006;8.514;2023-04-06T14:17:29;9.07;;;7.50;;
7527;SDS011;3805;49.006;8.514;2023-04-06T14:20:17;8.37;;;7.60;;
7527;SDS011;3805;49.006;8.514;2023-04-06T14:23:06;8.00;;;7.27;;
7527;SDS011;3805;49.006;8.514;2023-04-06T14:26:01;6.90;;;6.30;;
7527;SDS011;3805;49.006;8.514;2023-04-06T14:28:51;8.00;;;6.67;;
7527;SDS011;3805;49.006;8.514;2023-04-06T14:31:40;6.77;;;6.10;;
7527;SDS011;3805;49.006;8.514;2023-04-06T14:34:28;6.43;;;5.87;;
7527;SDS011;3805;49.006;8.514;2023-04-06T14:37:17;8.57;;;6.13;;
7527;SDS011;3805;49.006;8.514;2023-04-06T14:40:06;7.90;;;5.90;;
7527;SDS011;3805;49.006;8.514;2023-04-06T14:42:57;6.90;;;6.20;;
7527;SDS011;3805;49.006;8.514;2023-04-06T14:45:45;6.40;;;5.80;;
7527;SDS011;3805;49.006;8.514;2023-04-06T14:48:34;6.10;;;5.60;;
7527;SDS011;3805;49.006;8.514;2023-04-06T14:51:24;6.40;;;5.77;;
7527;SDS011;3805;49.006;8.514;2023-04-06T14:54:12;7.03;;;6.00;;
7527;SDS011;3805;49.006;8.514;2023-04-06T14:57:01;10.40;;;5.90;;
7527;SDS011;3805;49.006;8.514;2023-04-06T14:59:53;11.43;;;5.80;;
7527;SDS011;3805;49.006;8.514;2023-04-06T15:02:42;9.30;;;6.83;;
7527;SDS011;3805;49.006;8.514;2023-04-06T15:05:33;8.00;;;6.63;;
7527;SDS011;3805;49.006;8.514;2023-04-06T15:08:22;12.07;;;7.23;;
7527;SDS011;3805;49.006;8.514;2023-04-06T15:11:11;8.37;;;7.43;;
7527;SDS011;3805;49.006;8.514;2023-04-06T15:14:00;8.87;;;7.33;;
7527;SDS011;3805;49.006;8.514;2023-04-06T15:16:50;7.63;;;6.73;;
7527;SDS011;3805;49.006;8.514;2023-04-06T15:19:39;7.70;;;7.00;;
7527;SDS011;3805;49.006;8.514;2023-04-06T15:22:27;8.60;;;7.70;;
7527;SDS011;3805;49.006;8.514;2023-04-06T15:25:16;9.03;;;8.20;;
7527;SDS011;3805;49.006;8.514;2023-04-06T15:28:05;9.70;;;7.60;;
7527;SDS011;3805;49.006;8.514;2023-04-06T15:30:53;10.27;;;8.23;;
7527;SDS011;3805;49.006;8.514;2023-04-06T15:33:44;9.90;;;8.13;;
7527;SDS011;3805;49.006;8.514;2023-04-06T15:36:33;7.83;;;7.00;;
7527;SDS011;3805;49.006;8.514;2023-04-06T15:39:21;7.77;;;7.07;;
7527;SDS011;3805;49.006;8.514;2023-04-06T15:42:10;8.67;;;6.67;;
7527;SDS011;3805;49.006;8.514;2023-04-06T15:44:59;9.73;;;7.70;;
7527;SDS011;3805;49.006;8.514;2023-04-06T15:47:47;9.03;;;7.00;;
7527;SDS011;3805;49.006;8.514;2023-04-06T15:50:37;9.50;;;7.40;;
7527;SDS011;3805;49.006;8.514;2023-04-06T15:53:26;10.37;;;8.07;;
7527;SDS011;3805;49.006;8.514;2023-04-06T15:56:15;9.00;;;7.83;;
7527;SDS011;3805;49.006;8.514;2023-04-06T15:59:03;8.80;;;7.57;;
7527;SDS011;3805;49.006;8.514;2023-04-06T16:01:52;8.00;;;7.23;;
7527;SDS011;3805;49.006;8.514;2023-04-06T16:04:40;12.33;;;7.80;;
7527;SDS011;3805;49.006;8.514;2023-04-06T16:07:30;10.20;;;8.40;;
7527;SDS011;3805;49.006;8.514;2023-04-06T16:10:20;11.07;;;8.53;;
7527;SDS011;3805;49.006;8.514;2023-04-06T16:13:08;12.60;;;8.70;;
7527;SDS011;3805;49.006;8.514;2023-04-06T16:15:57;9.90;;;7.53;;
7527;SDS011;3805;49.006;8.514;2023-04-06T16:18:46;13.03;;;8.70;;
7527;SDS011;3805;49.006;8.514;2023-04-06T16:21:34;11.10;;;8.80;;
7527;SDS011;3805;49.006;8.514;2023-04-06T16:24:24;12.40;;;8.73;;
7527;SDS011;3805;49.006;8.514;2023-04-06T16:27:13;9.70;;;8.23;;
7527;SDS011;3805;49.006;8.514;2023-04-06T16:30:02;11.30;;;9.30;;
7527;SDS011;3805;49.006;8.514;2023-04-06T16:32:51;9.90;;;8.17;;
7527;SDS011;3805;49.006;8.514;2023-04-06T16:35:41;11.30;;;8.47;;
7527;SDS011;3805;49.006;8.514;2023-04-06T16:38:31;9.40;;;8.00;;
7527;SDS011;3805;49.006;8.514;2023-04-06T16:41:23;10.17;;;8.40;;
7527;SDS011;3805;49.006;8.514;2023-04-06T16:44:12;9.13;;;7.47;;
7527;SDS011;3805;49.006;8.514;2023-04-06T16:47:01;9.70;;;6.80;;
7527;SDS011;3805;49.006;8.514;2023-04-06T16:49:50;7.30;;;6.60;;
7527;SDS011;3805;49.006;8.514;2023-04-06T16:52:39;8.43;;;7.60;;
7527;SDS011;3805;49.006;8.514;2023-04-06T16:55:27;7.40;;;6.70;;
7527;SDS011;3805;49.006;8.514;2023-04-06T16:58:17;11.70;;;6.83;;
7527;SDS011;3805;49.006;8.514;2023-04-06T17:01:06;7.63;;;6.93;;
7527;SDS011;3805;49.006;8.514;2023-04-06T17:03:55;8.63;;;6.80;;
7527;SDS011;3805;49.006;8.514;2023-04-06T17:06:44;8.07;;;6.07;;
7527;SDS011;3805;49.006;8.514;2023-04-06T17:09:33;9.03;;;6.63;;
7527;SDS011;3805;49.006;8.514;2023-04-06T17:12:21;9.97;;;6.30;;
7527;SDS011;3805;49.006;8.514;2023-04-06T17:15:11;10.00;;;6.37;;
7527;SDS011;3805;49.006;8.514;2023-04-06T17:18:00;9.53;;;6.60;;